Time;durP1;ratioP1;P1;durP2;ratioP2;P2;SDS_P1;SDS_P2;PMS_P1;PMS_P2;Temp;Humidity;BMP_temperature;BMP_pressure;BME280_temperature;BME280_humidity;BME280_pressure;Samples;Min_cycle;Max_cycle;Signal;HPM_P1;HPM_P2
2023/01/09 00:00:19;;;;;;;;;3.00;1.00;;;;;10.32;64.67;99336.13;2094991;27;46811;-62
2023/01/09 00:01:24;;;;;;;;;0.00;0.00;;;;;10.33;64.82;99335.19;2114542;27;46617;-62
2023/01/09 00:02:25;;;;;;;;;0.50;0.00;;;;;10.35;64.77;99337.78;2106680;27;46974;-62
2023/01/09 00:03:25;;;;;;;;;1.00;1.00;;;;;10.35;65.13;99329.81;2103633;28;46574;-63
2023/01/09 00:04:26;;;;;;;;;1.00;1.00;;;;;10.34;64.57;99333.41;2102762;27;45708;-62
2023/01/09 00:05:26;;;;;;;;;0.67;0.67;;;;;10.35;64.76;99345.72;2104711;28;46769;-63
2023/01/09 00:06:27;;;;;;;;;3.00;1.00;;;;;10.36;64.73;99335.06;2106400;27;46543;-62
2023/01/09 00:07:27;;;;;;;;;2.00;2.00;;;;;10.38;64.66;99345.59;2104847;27;46885;-63
2023/01/09 00:08:27;;;;;;;;;3.00;2.00;;;;;10.37;64.76;99338.56;2113399;27;46598;-62
2023/01/09 00:09:28;;;;;;;;;0.00;0.00;;;;;10.38;64.72;99338.50;2102608;27;46287;-61
2023/01/09 00:10:28;;;;;;;;;0.00;0.00;;;;;10.38;64.70;99343.78;2109998;27;46706;-62
2023/01/09 00:11:28;;;;;;;;;2.33;2.00;;;;;10.40;64.60;99328.69;2110982;27;46699;-61
2023/01/09 00:12:29;;;;;;;;;0.67;0.67;;;;;10.41;65.09;99332.19;2106398;27;46522;-60
2023/01/09 00:13:29;;;;;;;;;1.00;1.00;;;;;10.40;65.01;99339.28;2105863;27;46841;-62
2023/01/09 00:14:29;;;;;;;;;2.00;1.00;;;;;10.40;64.80;99341.06;2108727;27;46634;-61
2023/01/09 00:15:30;;;;;;;;;0.00;0.00;;;;;10.41;64.74;99340.16;2108725;27;46951;-61
2023/01/09 00:16:30;;;;;;;;;0.33;0.33;;;;;10.42;64.79;99345.41;2105594;27;46149;-62
2023/01/09 00:17:31;;;;;;;;;2.00;2.00;;;;;10.41;64.82;99341.00;2110142;27;46556;-61
2023/01/09 00:18:31;;;;;;;;;1.33;1.33;;;;;10.40;64.90;99341.06;2104712;27;46691;-61
2023/01/09 00:19:31;;;;;;;;;1.00;1.00;;;;;10.40;64.71;99349.88;2111195;27;46677;-61
2023/01/09 00:20:32;;;;;;;;;1.00;1.00;;;;;10.38;64.69;99356.19;2108237;27;46366;-62
2023/01/09 00:21:32;;;;;;;;;1.67;1.00;;;;;10.36;64.96;99350.97;2104824;28;46450;-61
2023/01/09 00:22:33;;;;;;;;;2.33;1.00;;;;;10.34;64.76;99349.31;2106838;27;46263;-61
2023/01/09 00:23:33;;;;;;;;;0.00;0.00;;;;;10.31;65.04;99337.91;2106603;27;46221;-62
2023/01/09 00:24:37;;;;;;;;;1.00;0.00;;;;;10.30;64.93;99343.28;2105037;27;46498;-61
2023/01/09 00:25:37;;;;;;;;;1.00;0.75;;;;;10.30;64.92;99353.88;2107607;27;46386;-62
2023/01/09 00:26:38;;;;;;;;;2.00;1.00;;;;;10.29;64.96;99344.19;2105185;28;45146;-61
2023/01/09 00:27:38;;;;;;;;;2.33;0.00;;;;;10.27;64.91;99346.03;2104598;28;46827;-61
2023/01/09 00:28:39;;;;;;;;;2.33;2.33;;;;;10.26;64.78;99344.31;2107102;27;46731;-61
2023/01/09 00:29:40;;;;;;;;;0.00;0.00;;;;;10.25;65.07;99342.59;2102762;27;45824;-62
2023/01/09 00:30:41;;;;;;;;;1.50;1.00;;;;;10.26;65.14;99352.28;2109734;27;46669;-61
2023/01/09 00:31:41;;;;;;;;;1.67;1.67;;;;;10.25;65.02;99362.00;2107562;27;46730;-61
2023/01/09 00:32:41;;;;;;;;;1.67;1.67;;;;;10.25;65.25;99354.06;2112185;27;46532;-61
2023/01/09 00:33:53;;;;;;;;;1.00;1.00;;;;;10.25;65.22;99355.84;2101151;27;46206;-61
2023/01/09 00:34:55;;;;;;;;;1.25;1.00;;;;;10.24;65.16;99351.47;2108566;27;46962;-61
2023/01/09 00:35:55;;;;;;;;;0.00;0.00;;;;;10.22;64.97;99354.19;2101284;28;46685;-61
2023/01/09 00:36:55;;;;;;;;;1.00;1.00;;;;;10.22;64.88;99350.69;2110598;27;46705;-62
2023/01/09 00:37:56;;;;;;;;;1.00;1.00;;;;;10.23;65.18;99347.09;2105008;27;45942;-61
2023/01/09 00:38:56;;;;;;;;;1.00;1.00;;;;;10.22;65.14;99348.03;2105266;27;46657;-62
2023/01/09 00:39:57;;;;;;;;;3.00;2.00;;;;;10.23;65.04;99352.41;2104719;28;46525;-62
2023/01/09 00:40:59;;;;;;;;;0.00;0.00;;;;;10.24;65.27;99357.63;2104929;28;45937;-62
2023/01/09 00:41:59;;;;;;;;;0.00;0.00;;;;;10.24;65.30;99348.81;2104639;27;46540;-61
2023/01/09 00:42:59;;;;;;;;;1.67;1.67;;;;;10.25;65.31;99354.06;2107206;27;46250;-60
2023/01/09 00:44:06;;;;;;;;;2.00;1.00;;;;;10.25;65.04;99345.25;2108161;27;46978;-62
2023/01/09 00:45:13;;;;;;;;;1.00;1.00;;;;;10.24;64.92;99348.81;2111201;27;46455;-62
2023/01/09 00:46:14;;;;;;;;;1.25;1.25;;;;;10.24;65.16;99346.16;2107826;27;45390;-61
2023/01/09 00:47:21;;;;;;;;;1.00;0.75;;;;;10.23;65.26;99358.56;2108104;27;46518;-62
2023/01/09 00:48:25;;;;;;;;;1.25;1.25;;;;;10.25;65.38;99358.50;2111802;27;46532;-61
2023/01/09 00:49:30;;;;;;;;;1.75;1.00;;;;;10.25;65.35;99342.59;2106736;27;46887;-62
2023/01/09 00:50:32;;;;;;;;;1.00;1.00;;;;;10.25;65.20;99350.53;2109599;27;46422;-62
2023/01/09 00:51:32;;;;;;;;;1.50;1.00;;;;;10.27;65.13;99351.34;2111754;27;46739;-62
2023/01/09 00:52:36;;;;;;;;;1.00;1.00;;;;;10.27;65.18;99357.50;2112489;27;46679;-61
2023/01/09 00:53:39;;;;;;;;;0.00;0.00;;;;;10.27;65.20;99346.91;2103106;28;46240;-61
2023/01/09 00:54:41;;;;;;;;;3.00;1.00;;;;;10.27;65.16;99354.84;2103739;27;46650;-62
2023/01/09 00:55:42;;;;;;;;;1.25;1.25;;;;;10.29;65.60;99360.97;2104885;27;46619;-62
2023/01/09 00:56:42;;;;;;;;;1.67;0.67;;;;;10.28;65.17;99356.56;2113229;27;45866;-61
2023/01/09 00:57:43;;;;;;;;;2.00;0.00;;;;;10.28;65.08;99364.53;2107109;27;46214;-63
2023/01/09 00:58:44;;;;;;;;;0.00;0.00;;;;;10.28;64.94;99366.31;2099683;28;47056;-61
2023/01/09 00:59:44;;;;;;;;;4.50;1.50;;;;;10.26;65.11;99355.78;2088135;28;46898;-62
2023/01/09 01:00:45;;;;;;;;;1.00;1.00;;;;;10.26;65.10;99362.88;2096290;27;46879;-62
2023/01/09 01:01:45;;;;;;;;;2.67;1.33;;;;;10.24;65.23;99360.28;2096127;28;45848;-61
2023/01/09 01:02:45;;;;;;;;;2.00;0.33;;;;;10.24;65.06;99368.25;2096393;27;46877;-61
2023/01/09 01:03:46;;;;;;;;;3.00;2.00;;;;;10.23;65.14;99365.66;2103208;27;45548;-61
2023/01/09 01:07:41;;;;;;;;;2.00;2.00;;;;;10.21;65.07;99367.50;2102185;27;46828;-62
2023/01/09 01:08:42;;;;;;;;;0.50;0.50;;;;;10.19;65.17;99369.34;2096208;28;46460;-62
2023/01/09 01:09:42;;;;;;;;;0.67;0.67;;;;;10.17;65.17;99363.25;2096143;28;46594;-62
2023/01/09 01:10:43;;;;;;;;;2.00;2.00;;;;;10.16;65.07;99358.84;2096473;27;45528;-61
2023/01/09 01:11:44;;;;;;;;;1.75;1.00;;;;;10.14;65.17;99369.50;2096377;28;46378;-61
2023/01/09 01:12:45;;;;;;;;;2.00;0.67;;;;;10.14;65.12;99361.56;2095884;27;46946;-62
2023/01/09 01:13:45;;;;;;;;;3.00;1.00;;;;;10.14;65.26;99363.34;2095494;27;46508;-61
2023/01/09 01:14:45;;;;;;;;;2.00;1.67;;;;;10.14;65.27;99374.81;2096025;28;46789;-61
2023/01/09 01:15:46;;;;;;;;;1.67;1.00;;;;;10.15;65.11;99365.06;2101871;28;46873;-62
2023/01/09 01:16:46;;;;;;;;;0.00;0.00;;;;;10.15;65.39;99362.44;2104408;28;46401;-61
2023/01/09 01:17:47;;;;;;;;;1.33;1.00;;;;;10.17;65.25;99373.84;2104661;28;46378;-62
2023/01/09 01:18:48;;;;;;;;;1.00;1.00;;;;;10.17;65.14;99361.47;2100381;28;46269;-62
2023/01/09 01:19:48;;;;;;;;;1.33;1.33;;;;;10.18;65.17;99363.19;2096403;28;46733;-62
2023/01/09 01:20:49;;;;;;;;;2.00;2.00;;;;;10.19;65.06;99374.66;2103703;28;46518;-60
2023/01/09 01:21:49;;;;;;;;;1.67;1.67;;;;;10.19;65.08;99372.84;2104025;28;46387;-61
2023/01/09 01:22:49;;;;;;;;;1.00;0.00;;;;;10.18;65.14;99373.78;2104194;28;46947;-61
2023/01/09 01:23:50;;;;;;;;;0.67;0.00;;;;;10.18;65.20;99370.28;2097104;28;46398;-61
2023/01/09 01:24:50;;;;;;;;;1.00;1.00;;;;;10.17;65.21;99364.09;2096005;28;45381;-60
2023/01/09 01:25:51;;;;;;;;;1.00;1.00;;;;;10.18;65.30;99364.97;2104568;28;46270;-61
2023/01/09 01:26:51;;;;;;;;;2.67;2.00;;;;;10.19;65.45;99366.69;2104300;28;46012;-62
2023/01/09 01:27:52;;;;;;;;;2.00;2.00;;;;;10.19;65.23;99372.00;2104425;28;46583;-60
2023/01/09 01:28:52;;;;;;;;;1.67;1.00;;;;;10.18;65.34;99360.53;2097724;28;45644;-62
2023/01/09 01:29:52;;;;;;;;;1.00;1.00;;;;;10.18;65.13;99381.75;2100256;28;46239;-61
2023/01/09 01:30:53;;;;;;;;;1.00;0.00;;;;;10.16;65.06;99370.31;2105819;28;46630;-61
2023/01/09 01:31:53;;;;;;;;;3.00;1.00;;;;;10.13;65.16;99375.75;2105330;28;45939;-60
2023/01/09 01:32:53;;;;;;;;;5.00;1.00;;;;;10.12;65.05;99371.38;2098588;28;46493;-62
2023/01/09 01:33:54;;;;;;;;;0.00;0.00;;;;;10.11;65.21;99363.50;2105747;28;46362;-60
2023/01/09 01:34:54;;;;;;;;;0.00;0.00;;;;;10.11;65.17;99371.44;2106017;28;46131;-61
2023/01/09 01:36:05;;;;;;;;;1.00;1.00;;;;;10.10;65.12;99370.56;2106315;28;46295;-62
2023/01/09 01:37:06;;;;;;;;;1.50;1.00;;;;;10.10;65.41;99378.53;2105245;28;46304;-62
2023/01/09 01:38:06;;;;;;;;;0.67;0.67;;;;;10.10;65.33;99369.72;2105933;28;46716;-61
2023/01/09 01:39:07;;;;;;;;;3.33;2.00;;;;;10.09;65.23;99373.28;2105439;28;46501;-63
2023/01/09 01:40:08;;;;;;;;;2.00;2.00;;;;;10.07;65.30;99373.38;2099894;28;46835;-60
2023/01/09 01:41:09;;;;;;;;;1.50;1.00;;;;;10.06;65.41;99392.84;2097087;28;46902;-62
2023/01/09 01:42:12;;;;;;;;;0.33;0.33;;;;;10.08;65.42;99376.88;2097958;28;46362;-62
2023/01/09 01:43:12;;;;;;;;;1.00;0.25;;;;;10.07;65.24;99369.84;2102846;27;46639;-63
2023/01/09 01:44:51;;;;;;;;;1.00;0.75;;;;;10.06;65.25;99382.25;2105353;28;46518;-63
2023/01/09 01:45:52;;;;;;;;;1.25;1.25;;;;;10.02;65.45;99386.78;2099849;28;46656;-63
2023/01/09 01:46:55;;;;;;;;;1.67;1.00;;;;;10.02;65.22;99377.97;2105009;28;46335;-61
2023/01/09 01:48:31;;;;;;;;;3.25;1.00;;;;;10.02;65.69;99388.56;2105714;28;46691;-61
2023/01/09 01:49:31;;;;;;;;;3.75;2.50;;;;;10.00;65.28;99385.97;2066558;28;47066;-62
2023/01/09 01:50:36;;;;;;;;;3.00;3.00;;;;;9.98;65.47;99390.50;2063887;28;46388;-61
2023/01/09 01:51:41;;;;;;;;;2.50;2.50;;;;;9.98;65.59;99390.50;2060003;28;45797;-61
2023/01/09 01:52:46;;;;;;;;;1.00;1.00;;;;;9.98;65.50;99394.94;2063928;28;46904;-62
2023/01/09 01:53:52;;;;;;;;;1.00;1.00;;;;;9.97;65.68;99388.75;2066466;28;47026;-60
2023/01/09 01:54:53;;;;;;;;;0.50;0.25;;;;;9.99;65.81;99401.94;2070339;28;46409;-62
2023/01/09 01:56:12;;;;;;;;;2.25;1.00;;;;;9.99;65.59;99401.94;2071553;28;46618;-62
2023/01/09 01:57:13;;;;;;;;;2.00;2.00;;;;;10.00;65.69;99401.03;2072111;28;46313;-63
2023/01/09 01:58:14;;;;;;;;;1.00;1.00;;;;;9.99;65.63;99413.41;2069874;28;46458;-61
2023/01/09 01:59:36;;;;;;;;;1.00;1.00;;;;;9.97;65.86;99396.72;2071714;28;46657;-62
2023/01/09 02:00:41;;;;;;;;;1.00;1.00;;;;;9.97;65.85;99401.16;2063600;28;45364;-63
2023/01/09 02:01:47;;;;;;;;;1.50;1.50;;;;;9.98;65.95;99409.03;2063896;28;46912;-62
2023/01/09 02:02:47;;;;;;;;;1.50;1.50;;;;;9.97;66.12;99399.38;2070668;28;45680;-62
2023/01/09 02:03:51;;;;;;;;;1.67;1.67;;;;;9.99;65.88;99388.69;2064741;28;46471;-62
2023/01/09 02:04:54;;;;;;;;;3.75;3.00;;;;;10.00;65.87;99393.94;2070052;28;46640;-62
2023/01/09 02:05:55;;;;;;;;;2.50;1.00;;;;;10.02;65.91;99393.88;2071057;28;46611;-63
2023/01/09 02:06:55;;;;;;;;;2.00;1.67;;;;;10.04;66.31;99392.03;2071768;28;46263;-61
2023/01/09 02:07:56;;;;;;;;;1.67;1.67;;;;;10.06;65.95;99394.63;2063606;28;46976;-62
2023/01/09 02:08:56;;;;;;;;;2.67;2.67;;;;;10.07;65.83;99399.00;2063418;28;46328;-62
2023/01/09 02:09:57;;;;;;;;;2.00;1.00;;;;;10.07;65.72;99394.56;2063583;28;46558;-63
2023/01/09 02:10:58;;;;;;;;;2.50;1.25;;;;;10.08;65.88;99398.94;2062960;28;46782;-61
2023/01/09 02:11:59;;;;;;;;;1.00;1.00;;;;;10.07;65.80;99405.16;2063372;28;46427;-62
2023/01/09 02:13:01;;;;;;;;;1.00;1.00;;;;;10.07;65.98;99402.53;2070200;28;46070;-61
2023/01/09 02:14:02;;;;;;;;;1.25;1.00;;;;;10.07;65.93;99399.88;2071454;28;46426;-61
2023/01/09 02:15:10;;;;;;;;;3.00;1.33;;;;;10.09;65.65;99397.16;2071716;28;45929;-62
2023/01/09 02:16:39;;;;;;;;;3.00;1.50;;;;;10.07;65.73;99399.00;2069797;28;46817;-61
2023/01/09 02:18:14;;;;;;;;;3.25;2.00;;;;;10.09;66.05;99407.75;2063313;28;46011;-61
2023/01/09 02:20:00;;;;;;;;;0.75;0.75;;;;;10.09;65.96;99403.31;2043079;28;46439;-62
2023/01/09 02:21:08;;;;;;;;;1.00;1.00;;;;;10.10;65.76;99398.88;2043204;28;46835;-61
2023/01/09 02:22:30;;;;;;;;;5.75;1.25;;;;;10.11;65.98;99409.41;2049882;28;46754;-61
2023/01/09 02:23:46;;;;;;;;;2.75;2.00;;;;;10.14;66.08;99408.41;2047314;28;46725;-61
2023/01/09 02:24:55;;;;;;;;;1.00;0.25;;;;;10.15;66.15;99410.13;2062845;28;46649;-61
2023/01/09 02:26:14;;;;;;;;;1.25;0.00;;;;;10.15;65.76;99413.66;2072844;28;46909;-60
2023/01/09 02:27:26;;;;;;;;;3.00;1.00;;;;;10.15;65.88;99413.66;2073643;28;45885;-62
2023/01/09 02:28:57;;;;;;;;;2.50;2.25;;;;;10.13;65.94;99407.56;2072007;28;47033;-62
2023/01/09 02:30:16;;;;;;;;;2.50;2.00;;;;;10.12;65.81;99419.09;2064639;28;47102;-62
2023/01/09 02:31:43;;;;;;;;;1.75;1.75;;;;;10.12;66.16;99410.28;2064326;28;46273;-63
2023/01/09 02:32:58;;;;;;;;;3.75;2.00;;;;;10.15;66.06;99429.56;2071389;28;46306;-61
2023/01/09 02:34:02;;;;;;;;;2.50;2.25;;;;;10.14;65.84;99422.53;2077370;28;47782;-62
2023/01/09 02:35:16;;;;;;;;;2.00;1.00;;;;;10.12;65.86;99432.34;2074512;28;46182;-62
2023/01/09 02:36:27;;;;;;;;;1.25;1.25;;;;;10.11;65.88;99425.31;2063676;28;46970;-60
2023/01/09 02:37:43;;;;;;;;;1.25;0.50;;;;;10.10;65.79;99428.88;2061444;28;46251;-62
2023/01/09 02:39:03;;;;;;;;;2.00;2.00;;;;;10.11;65.98;99425.31;2068009;28;45585;-61
2023/01/09 02:40:28;;;;;;;;;3.00;1.25;;;;;10.13;65.93;99427.91;2071818;28;46476;-62
2023/01/09 02:41:42;;;;;;;;;3.00;1.00;;;;;10.14;66.00;99432.28;2039390;28;45877;-61
2023/01/09 02:42:44;;;;;;;;;2.00;2.00;;;;;10.15;65.96;99434.84;2039209;28;46461;-62
2023/01/09 02:43:44;;;;;;;;;2.00;2.00;;;;;10.15;65.98;99432.22;2036734;28;46601;-60
2023/01/09 02:44:45;;;;;;;;;1.33;1.33;;;;;10.15;65.75;99432.22;2035478;28;46800;-60
2023/01/09 02:45:45;;;;;;;;;1.67;1.67;;;;;10.16;66.05;99433.06;2039021;28;46303;-60
2023/01/09 02:46:46;;;;;;;;;0.67;0.67;;;;;10.16;66.08;99430.41;2031604;28;45677;-61
2023/01/09 02:47:46;;;;;;;;;1.00;1.00;;;;;10.14;66.03;99424.31;2031062;29;45778;-61
2023/01/09 02:48:51;;;;;;;;;2.33;1.33;;;;;10.12;65.94;99437.63;2039570;28;46373;-61
2023/01/09 02:50:02;;;;;;;;;1.50;1.25;;;;;10.10;65.88;99426.25;2038555;28;46738;-61
2023/01/09 02:51:16;;;;;;;;;2.00;2.00;;;;;10.09;66.00;99419.22;2040932;28;45176;-61
2023/01/09 02:52:53;;;;;;;;;1.75;0.75;;;;;10.09;65.91;99428.97;2040415;28;46430;-61
2023/01/09 02:54:06;;;;;;;;;3.50;3.25;;;;;10.08;65.92;99436.03;2038438;28;46643;-61
2023/01/09 02:55:16;;;;;;;;;2.25;2.00;;;;;10.09;66.13;99428.97;2034869;28;46996;-61
2023/01/09 02:56:29;;;;;;;;;2.25;2.00;;;;;10.08;65.97;99421.94;2042176;28;46513;-62
2023/01/09 02:57:55;;;;;;;;;0.75;0.00;;;;;10.07;66.40;99421.06;2054460;28;46947;-61
2023/01/09 02:59:20;;;;;;;;;2.00;2.00;;;;;10.09;66.20;99428.97;2058617;28;46385;-61
2023/01/09 03:00:52;;;;;;;;;3.00;3.00;;;;;10.08;66.23;99422.78;2065395;28;46553;-60
2023/01/09 03:02:02;;;;;;;;;0.75;0.75;;;;;10.06;66.14;99424.66;2060277;28;46776;-61
2023/01/09 03:03:14;;;;;;;;;2.00;2.00;;;;;10.08;66.28;99416.63;2069115;28;46431;-60
2023/01/09 03:04:48;;;;;;;;;3.50;1.00;;;;;10.08;66.24;99428.09;2066116;28;47063;-61
2023/01/09 03:06:05;;;;;;;;;1.50;1.50;;;;;10.09;66.32;99429.81;2058916;28;46642;-61
2023/01/09 03:07:16;;;;;;;;;3.25;1.50;;;;;10.11;66.45;99429.75;2062914;28;47062;-62
2023/01/09 03:08:21;;;;;;;;;3.00;3.00;;;;;10.12;66.48;99420.88;2062920;28;46845;-61
2023/01/09 03:09:27;;;;;;;;;0.75;0.75;;;;;10.15;66.20;99434.00;2064197;28;47391;-61
2023/01/09 03:10:51;;;;;;;;;4.50;2.00;;;;;10.14;66.32;99427.84;2062621;28;46478;-61
2023/01/09 03:11:58;;;;;;;;;1.50;1.50;;;;;10.14;66.36;99433.13;2063120;28;45497;-61
2023/01/09 03:13:02;;;;;;;;;1.00;1.00;;;;;10.15;66.30;99434.00;2062388;28;46579;-61
2023/01/09 03:14:10;;;;;;;;;1.00;1.00;;;;;10.16;66.35;99425.13;2067255;28;46646;-61
2023/01/09 03:15:14;;;;;;;;;1.25;1.25;;;;;10.16;66.23;99433.94;2069009;28;46412;-61
2023/01/09 03:16:30;;;;;;;;;2.00;1.00;;;;;10.15;66.25;99429.56;2062747;28;46552;-61
2023/01/09 03:17:37;;;;;;;;;1.00;1.00;;;;;10.16;66.38;99425.97;2063420;28;46826;-61
2023/01/09 03:18:38;;;;;;;;;3.00;1.00;;;;;10.16;66.11;99427.78;2069061;28;47119;-61
2023/01/09 03:19:41;;;;;;;;;2.00;1.00;;;;;10.16;66.38;99435.72;2104101;27;46486;-62
2023/01/09 03:20:43;;;;;;;;;1.75;1.50;;;;;10.17;66.23;99438.34;2102941;27;46338;-62
2023/01/09 03:21:45;;;;;;;;;3.50;1.25;;;;;10.18;66.11;99440.06;2101460;27;46474;-60
2023/01/09 03:22:57;;;;;;;;;4.00;2.00;;;;;10.17;66.03;99448.94;2105093;28;46891;-61
2023/01/09 03:24:01;;;;;;;;;1.50;1.50;;;;;10.17;65.99;99440.13;2112055;27;46707;-61
2023/01/09 03:25:01;;;;;;;;;1.50;1.25;;;;;10.16;66.17;99452.50;2112651;27;46506;-60
2023/01/09 03:26:01;;;;;;;;;2.00;1.33;;;;;10.18;65.91;99447.16;2096337;28;46699;-61
2023/01/09 03:27:01;;;;;;;;;1.00;1.00;;;;;10.15;65.96;99442.81;2099224;28;46200;-61
2023/01/09 03:28:05;;;;;;;;;1.00;1.00;;;;;10.16;66.37;99435.72;2105167;28;46961;-60
2023/01/09 03:29:05;;;;;;;;;1.00;0.50;;;;;10.15;66.24;99432.22;2096876;28;45214;-61
2023/01/09 03:30:06;;;;;;;;;1.00;1.00;;;;;10.16;66.19;99438.38;2102240;28;46277;-61
2023/01/09 03:31:07;;;;;;;;;2.00;1.25;;;;;10.16;66.45;99436.59;2096980;28;46407;-60
2023/01/09 03:32:08;;;;;;;;;1.00;1.00;;;;;10.19;66.41;99440.94;2095989;28;46321;-62
2023/01/09 03:33:09;;;;;;;;;2.00;2.00;;;;;10.20;65.76;99445.31;2098527;27;46656;-62
2023/01/09 03:34:09;;;;;;;;;4.00;2.00;;;;;10.18;65.99;99441.84;2105164;28;46341;-60
2023/01/09 03:35:10;;;;;;;;;2.00;2.00;;;;;10.19;65.87;99440.94;2104279;27;46724;-62
2023/01/09 03:36:11;;;;;;;;;2.67;2.67;;;;;10.19;65.97;99443.56;2104709;27;46731;-62
2023/01/09 03:37:12;;;;;;;;;1.50;1.00;;;;;10.18;66.32;99433.91;2105305;28;47034;-61
2023/01/09 03:38:12;;;;;;;;;3.33;1.00;;;;;10.19;66.21;99443.56;2095988;28;46281;-62
2023/01/09 03:39:12;;;;;;;;;1.00;1.00;;;;;10.20;66.17;99445.31;2095965;28;46211;-62
2023/01/09 03:40:13;;;;;;;;;1.00;1.00;;;;;10.20;66.17;99447.94;2111777;27;46216;-62
2023/01/09 03:41:13;;;;;;;;;1.00;1.00;;;;;10.19;65.96;99444.44;2110219;27;45331;-61
2023/01/09 03:42:14;;;;;;;;;3.67;3.67;;;;;10.18;65.84;99442.72;2105276;28;45715;-62
2023/01/09 03:43:14;;;;;;;;;2.67;2.67;;;;;10.20;66.06;99453.25;2105075;27;46470;-61
2023/01/09 03:44:14;;;;;;;;;1.00;1.00;;;;;10.21;66.05;99450.56;2105654;27;46206;-60
2023/01/09 03:45:15;;;;;;;;;1.33;1.33;;;;;10.21;66.10;99449.69;2104363;28;46172;-61
2023/01/09 03:46:16;;;;;;;;;1.67;1.33;;;;;10.21;65.98;99458.53;2100397;28;46513;-60
2023/01/09 03:47:16;;;;;;;;;0.50;0.50;;;;;10.22;65.94;99444.34;2097183;28;45706;-60
2023/01/09 03:48:17;;;;;;;;;1.33;1.33;;;;;10.23;66.17;99453.16;2111029;27;45820;-61
2023/01/09 03:49:17;;;;;;;;;1.67;1.00;;;;;10.25;65.94;99456.59;2111098;27;46463;-60
2023/01/09 03:50:18;;;;;;;;;0.75;0.00;;;;;10.27;65.77;99454.75;2105154;28;46479;-61
2023/01/09 03:51:18;;;;;;;;;2.00;2.00;;;;;10.27;65.86;99458.25;2110191;27;46830;-61
2023/01/09 03:52:19;;;;;;;;;1.00;1.00;;;;;10.29;66.04;99463.50;2112245;27;46593;-62
2023/01/09 03:53:21;;;;;;;;;1.00;1.00;;;;;10.29;65.80;99458.19;2106573;27;46647;-60
2023/01/09 03:54:21;;;;;;;;;0.75;0.75;;;;;10.28;65.91;99457.34;2108127;27;46280;-60
2023/01/09 03:55:21;;;;;;;;;2.67;1.67;;;;;10.29;65.61;99442.28;2113846;27;46685;-60
2023/01/09 03:56:22;;;;;;;;;2.67;1.00;;;;;10.30;65.63;99452.00;2105220;27;46460;-61
2023/01/09 03:57:23;;;;;;;;;1.33;1.00;;;;;10.31;65.76;99449.28;2089491;28;45556;-61
2023/01/09 03:58:24;;;;;;;;;2.33;2.00;;;;;10.33;65.76;99457.16;2089889;28;46449;-61
2023/01/09 03:59:25;;;;;;;;;0.00;0.00;;;;;10.33;65.57;99457.16;2110492;27;46549;-60
2023/01/09 04:00:25;;;;;;;;;2.33;1.00;;;;;10.34;65.88;99453.59;2095190;28;46462;-61
2023/01/09 04:01:25;;;;;;;;;1.00;1.00;;;;;10.34;65.68;99469.50;2083719;28;46459;-61
2023/01/09 04:02:26;;;;;;;;;5.00;1.00;;;;;10.32;65.79;99464.25;2091384;28;46359;-60
2023/01/09 04:03:27;;;;;;;;;2.00;1.00;;;;;10.34;65.74;99458.03;2105013;28;46887;-62
2023/01/09 04:04:27;;;;;;;;;1.00;1.00;;;;;10.35;65.81;99462.41;2111232;27;46503;-62
2023/01/09 04:05:27;;;;;;;;;1.00;0.00;;;;;10.36;65.76;99466.78;2096942;28;46230;-61
2023/01/09 04:06:28;;;;;;;;;2.67;0.67;;;;;10.37;65.63;99465.84;2095944;28;46970;-61
2023/01/09 04:07:28;;;;;;;;;1.67;1.00;;;;;10.37;65.47;99463.19;2110319;27;46780;-61
2023/01/09 04:08:29;;;;;;;;;0.67;0.67;;;;;10.39;65.37;99469.28;2106335;27;46853;-62
2023/01/09 04:09:29;;;;;;;;;2.75;1.50;;;;;10.40;65.23;99461.28;2111049;27;47068;-62
2023/01/09 04:10:30;;;;;;;;;1.33;1.33;;;;;10.41;65.37;99465.66;2106152;27;46315;-62
2023/01/09 04:11:30;;;;;;;;;4.00;4.00;;;;;10.43;65.59;99470.91;2108607;27;47009;-62
2023/01/09 04:12:31;;;;;;;;;3.00;1.67;;;;;10.44;65.66;99484.13;2105568;27;45597;-61
2023/01/09 04:13:31;;;;;;;;;2.00;1.33;;;;;10.45;65.41;99480.53;2104675;27;45478;-62
2023/01/09 04:14:31;;;;;;;;;1.33;1.33;;;;;10.45;65.56;99491.16;2110300;27;45505;-61
2023/01/09 04:15:32;;;;;;;;;2.00;2.00;;;;;10.46;65.44;99481.41;2107492;27;46529;-62
2023/01/09 04:16:32;;;;;;;;;1.00;1.00;;;;;10.46;65.25;99486.69;2113541;27;46672;-62
2023/01/09 04:17:32;;;;;;;;;2.00;2.00;;;;;10.45;65.30;99482.31;2104863;27;46482;-61
2023/01/09 04:18:33;;;;;;;;;2.00;1.00;;;;;10.47;65.50;99485.78;2105441;27;46284;-61
2023/01/09 04:19:33;;;;;;;;;0.00;0.00;;;;;10.46;65.50;99478.75;2107921;27;46308;-62
2023/01/09 04:20:34;;;;;;;;;1.00;1.00;;;;;10.45;65.32;99477.88;2105682;27;46253;-61
2023/01/09 04:21:34;;;;;;;;;1.00;1.00;;;;;10.46;65.50;99484.91;2104919;28;46221;-61
2023/01/09 04:22:35;;;;;;;;;2.33;0.33;;;;;10.47;65.48;99493.72;2105132;27;46155;-60
2023/01/09 04:23:35;;;;;;;;;3.00;0.67;;;;;10.47;65.12;99491.94;2105098;27;45184;-61
2023/01/09 04:24:35;;;;;;;;;2.33;0.00;;;;;10.47;65.08;99489.28;2111466;27;46635;-61
2023/01/09 04:25:36;;;;;;;;;4.33;2.00;;;;;10.46;65.32;99495.53;2105570;27;46314;-61
2023/01/09 04:26:36;;;;;;;;;2.00;2.00;;;;;10.46;65.27;99497.31;2103849;28;46442;-61
2023/01/09 04:27:37;;;;;;;;;0.67;0.67;;;;;10.45;65.24;99496.44;2104791;28;46239;-61
2023/01/09 04:28:37;;;;;;;;;3.00;2.00;;;;;10.44;65.17;99496.50;2100831;28;46933;-61
2023/01/09 04:29:37;;;;;;;;;3.00;2.00;;;;;10.43;65.13;99493.00;2104064;28;47072;-60
2023/01/09 04:30:38;;;;;;;;;0.67;0.67;;;;;10.41;65.17;99493.97;2112411;27;46131;-61
2023/01/09 04:31:38;;;;;;;;;6.00;2.00;;;;;10.39;65.15;99486.06;2077862;28;46481;-60
2023/01/09 04:32:39;;;;;;;;;2.00;0.67;;;;;10.40;65.15;99489.59;2071440;28;46247;-61
2023/01/09 04:33:39;;;;;;;;;3.67;2.00;;;;;10.40;65.39;99489.59;2103573;27;46800;-61
2023/01/09 04:34:39;;;;;;;;;1.00;1.00;;;;;10.42;65.39;99487.75;2105253;27;46780;-61
2023/01/09 04:35:39;;;;;;;;;1.67;0.00;;;;;10.43;65.09;99485.03;2113768;27;45151;-61
2023/01/09 04:36:41;;;;;;;;;0.67;0.67;;;;;10.42;65.52;99487.75;2113608;27;46789;-61
2023/01/09 04:37:42;;;;;;;;;2.25;1.00;;;;;10.43;65.07;99486.84;2104026;28;46835;-62
2023/01/09 04:38:42;;;;;;;;;1.00;1.00;;;;;10.43;65.23;99481.53;2103450;28;45915;-62
2023/01/09 04:39:42;;;;;;;;;1.00;0.67;;;;;10.42;65.08;99488.63;2112691;27;46249;-61
2023/01/09 04:40:43;;;;;;;;;0.33;0.33;;;;;10.43;65.21;99485.03;2113565;27;45848;-61
2023/01/09 04:41:49;;;;;;;;;3.00;2.00;;;;;10.43;65.08;99476.22;2112796;27;46509;-60
2023/01/09 04:42:49;;;;;;;;;1.75;0.75;;;;;10.45;65.10;99485.84;2112203;27;46610;-60
2023/01/09 04:43:50;;;;;;;;;2.00;1.33;;;;;10.46;64.90;99494.66;2113194;27;46433;-61
2023/01/09 04:44:52;;;;;;;;;0.67;0.67;;;;;10.45;64.99;99493.78;2112076;27;46770;-61
2023/01/09 04:45:52;;;;;;;;;0.25;0.25;;;;;10.44;65.18;99493.88;2113052;27;46780;-62
2023/01/09 04:46:55;;;;;;;;;1.00;1.00;;;;;10.44;65.02;99494.72;2113454;27;46338;-61
2023/01/09 04:47:55;;;;;;;;;1.00;1.00;;;;;10.45;65.00;99492.94;2112209;27;46690;-61
2023/01/09 04:48:56;;;;;;;;;1.00;0.00;;;;;10.46;65.14;99499.97;2113687;27;45852;-61
2023/01/09 04:49:56;;;;;;;;;1.33;0.00;;;;;10.48;65.33;99498.97;2112545;27;46285;-60
2023/01/09 04:50:56;;;;;;;;;2.00;1.00;;;;;10.47;64.99;99493.72;2111395;27;46863;-61
2023/01/09 04:51:57;;;;;;;;;1.00;1.00;;;;;10.48;65.26;99496.31;2112615;27;46600;-62
2023/01/09 04:52:57;;;;;;;;;1.00;1.00;;;;;10.49;65.18;99498.03;2107956;27;45734;-60
2023/01/09 04:53:58;;;;;;;;;0.67;0.67;;;;;10.48;65.06;99495.44;2098304;27;45869;-61
2023/01/09 04:54:58;;;;;;;;;2.00;1.00;;;;;10.48;65.22;99487.50;2113044;27;46691;-61
2023/01/09 04:55:58;;;;;;;;;1.00;1.00;;;;;10.48;65.22;99493.66;2112802;27;46147;-60
2023/01/09 04:56:59;;;;;;;;;3.33;2.33;;;;;10.47;65.39;99491.94;2106014;27;46677;-62
2023/01/09 04:57:59;;;;;;;;;4.33;2.00;;;;;10.48;65.14;99501.63;2110356;27;47124;-61
2023/01/09 04:58:59;;;;;;;;;1.00;1.00;;;;;10.49;65.20;99502.47;2110675;27;46652;-61
2023/01/09 05:00:00;;;;;;;;;0.67;0.67;;;;;10.49;65.24;99507.78;2100860;28;47009;-62
2023/01/09 05:01:00;;;;;;;;;3.00;1.00;;;;;10.49;65.27;99513.94;2108909;27;46312;-62
2023/01/09 05:02:01;;;;;;;;;0.00;0.00;;;;;10.50;65.30;99501.56;2111750;27;46978;-60
2023/01/09 05:03:01;;;;;;;;;1.00;1.00;;;;;10.51;65.48;99505.94;2111780;27;46170;-62
2023/01/09 05:04:03;;;;;;;;;2.00;1.00;;;;;10.52;65.18;99499.69;2107635;27;45317;-62